Airfield :
LOGIN :

Register | Disclaimer

   EN    FR    IT 

 










Legend :    VFR   Marginal VFR   IFR   Intensive IFR   Very Intensive IFR
Visi :
Ceiling :
>= 8 km
>= 3000ft
5 to 8 km
1000 to 3000 ft
1500m to 5 km
500 to 1000 ft
800 to 1500m
200 to 500 ft
< 800m
< 200 ft
Symbols :   Thunderstorms  Fog  Heavy snow  Heavy precipitations  Wind > 20 kt
SIGMETs :     Misc.  Thunderstorms  Icing  Turbulence  Mountain Waves  Volcanic Ashes







- Airport Elevation : 277 ft
- IATA code : JER
- Download approach charts


EGJJ - Jersey

CURRENT METAR :
  • 250620Z 06004KT 010V090 2000 -DZ BR VCFG FEW000 SCT002 BKN004 13/13 Q1018

EXPIRED METARs :
  • 250550Z 02003KT 340V070 0700 R08/0800 -DZ FG SCT000 BKN002 13/13 Q1017
  • 250520Z VRB02KT 0600 R08/0650 -DZ FG SCT000 BKN002 13/13 Q1017
  • 250450Z 10003KT 070V130 1500 -DZ BR FEW000 BKN002 13/13 Q1017
  • 250420Z AUTO 05003KT 020V090 1900 BR OVC003/// 13/13 Q1017
  • 250350Z AUTO 08003KT 030V140 4100 HZ BKN003/// OVC005/// 13/12 Q1017

Expired Forecast.
ATIS : +44 1534 498 073
No reported NOTAMs for that airfield.
1 SIGMET reported for the Brest FIR (LFRR) :
 
Embedded thunderstorms
LFRR SIGMET 3 VALID 250600/250800 LFPW
LFRR BREST FIR/UIR EMBD TS OBS WI N4545 W00145 - N4415 W00145 - N4430 W00230 - N4545 W00215 - N4545 W00145 TOP FL380 MOV NNE 20KT NC=



MET'MAP, your aeronautical weather chart ! - Copyright ORBIFLY December 2007 - Disclaimer

ORBIFLY MET'MAP TEAM :

Programming & Development : Alexandra Zaïnal
Concept & Development : Baudouin d'Aumeries
Co-Development & Prog : Marc-Olivier Méhu
Technical & hardware support : Manuel Goepfert

Contact : metmap@orbifly.com




SOURCES & CREDITS :

   NOAA